Time;durP1;ratioP1;P1;durP2;ratioP2;P2;SDS_P1;SDS_P2;PMS_P1;PMS_P2;Temp;Humidity;BMP_temperature;BMP_pressure;BME280_temperature;BME280_humidity;BME280_pressure;Samples;Min_cycle;Max_cycle;Signal;HPM_P1;HPM_P2
2022/03/22 04:47:27;;;;;;;61.70;33.50;;;2.10;99.90;;;;;;10108319;29;20224;-87
2022/03/22 05:24:05;;;;;;;68.47;36.43;;;1.80;99.90;;;;;;10006741;29;20198;-86
2022/03/22 06:02:04;;;;;;;72.97;39.40;;;2.90;99.90;;;;;;10036907;29;20205;-89
2022/03/22 06:07:26;;;;;;;72.20;39.60;;;3.10;99.90;;;;;;10082390;29;20238;-88
2022/03/22 06:13:43;;;;;;;87.27;44.20;;;3.30;99.90;;;;;;10098721;29;20213;-89
2022/03/22 06:20:18;;;;;;;105.67;52.53;;;3.60;99.90;;;;;;10099009;29;20211;-89
2022/03/22 06:27:01;;;;;;;105.70;53.20;;;3.90;99.90;;;;;;10019698;29;20207;-88
2022/03/22 06:40:42;;;;;;;112.70;55.87;;;4.50;99.90;;;;;;10004742;29;20209;-86
2022/03/22 06:53:55;;;;;;;78.37;41.83;;;5.30;97.00;;;;;;10041590;29;20212;-86
2022/03/22 07:00:00;;;;;;;70.33;37.00;;;5.80;95.70;;;;;;10025705;29;20222;-88
2022/03/22 07:13:43;;;;;;;56.05;31.35;;;8.10;83.00;;;;;;10121908;29;20385;-87
2022/03/22 07:20:09;;;;;;;54.95;32.33;;;11.10;45.30;;;;;;9961650;29;20216;-82
2022/03/22 07:33:07;;;;;;;53.10;31.98;;;14.00;29.10;;;;;;9965831;29;20267;-83
2022/03/22 07:38:30;;;;;;;56.63;34.00;;;14.80;25.50;;;;;;9949933;29;20240;-82
2022/03/22 07:43:54;;;;;;;55.92;32.63;;;15.50;23.80;;;;;;9974001;29;20248;-88
2022/03/22 07:55:00;;;;;;;48.63;30.50;;;;;;;;;;10026346;29;20237;-85
2022/03/22 08:00:23;;;;;;;43.20;28.10;;;;;;;;;;10114627;29;20381;-83
2022/03/22 08:05:48;;;;;;;42.92;29.05;;;17.80;18.80;;;;;;10089385;29;20241;-85
2022/03/22 08:11:11;;;;;;;42.28;29.25;;;18.30;18.00;;;;;;10133172;29;20237;-83
2022/03/22 08:16:36;;;;;;;41.42;27.90;;;18.70;17.60;;;;;;10120312;29;20276;-82
2022/03/22 08:21:59;;;;;;;44.63;30.00;;;19.30;16.60;;;;;;10072357;29;20248;-85
2022/03/22 08:27:22;;;;;;;59.20;36.78;;;20.10;15.30;;;;;;10114336;29;20293;-85
2022/03/22 08:32:44;;;;;;;42.22;28.67;;;20.10;14.80;;;;;;10121294;29;20457;-85
2022/03/22 08:38:06;;;;;;;40.97;26.30;;;20.40;14.30;;;;;;10113453;29;20333;-85
2022/03/22 08:43:30;;;;;;;39.30;24.02;;;20.60;14.00;;;;;;10060760;29;20237;-85
2022/03/22 08:48:53;;;;;;;35.53;23.33;;;21.50;13.10;;;;;;10132321;29;20289;-83
2022/03/22 08:54:17;;;;;;;33.30;22.88;;;21.90;11.60;;;;;;10096008;29;20294;-84
2022/03/22 08:59:40;;;;;;;34.50;21.08;;;22.30;10.70;;;;;;10129845;23;20227;-88
2022/03/22 09:10:50;;;;;;;26.95;17.13;;;23.10;8.00;;;;;;10145834;29;20272;-90
2022/03/22 09:16:14;;;;;;;24.08;17.40;;;22.90;7.50;;;;;;10136362;29;20680;-86
2022/03/22 09:21:36;;;;;;;21.70;14.82;;;23.00;7.10;;;;;;10112599;29;20201;-84
2022/03/22 09:26:58;;;;;;;19.40;14.13;;;22.90;6.70;;;;;;10106583;29;20205;-82
2022/03/22 09:32:20;;;;;;;22.45;15.20;;;22.90;6.60;;;;;;10160212;29;20214;-87
2022/03/22 09:37:43;;;;;;;23.75;16.08;;;23.40;6.50;;;;;;10125647;29;20335;-85
2022/03/22 09:43:08;;;;;;;20.23;13.65;;;23.70;6.20;;;;;;10134449;29;20217;-83
2022/03/22 09:48:33;;;;;;;19.50;14.20;;;23.80;5.60;;;;;;10120997;29;20217;-83
2022/03/22 09:53:56;;;;;;;19.42;14.10;;;23.10;5.80;;;;;;10128583;29;20284;-81
2022/03/22 09:59:21;;;;;;;26.98;15.45;;;23.30;5.80;;;;;;10121688;29;20296;-85
2022/03/22 10:04:44;;;;;;;25.48;14.05;;;23.10;5.80;;;;;;10158623;29;20222;-82
2022/03/22 10:10:07;;;;;;;20.45;14.80;;;24.10;5.40;;;;;;10167147;29;20220;-81
2022/03/22 10:15:30;;;;;;;22.92;16.65;;;24.50;5.50;;;;;;10161726;29;20565;-80
2022/03/22 10:21:01;;;;;;;25.77;17.52;;;24.60;5.10;;;;;;10147879;29;20200;-90
2022/03/22 10:26:35;;;;;;;29.30;15.32;;;24.80;5.50;;;;;;10143679;29;20476;-82
2022/03/22 10:32:03;;;;;;;16.02;13.18;;;25.10;4.80;;;;;;10139622;29;20222;-80
2022/03/22 10:37:26;;;;;;;21.35;13.77;;;25.20;4.80;;;;;;10175547;29;20240;-87
2022/03/22 10:42:58;;;;;;;19.48;13.88;;;25.40;4.40;;;;;;10166284;29;20471;-83
2022/03/22 10:48:26;;;;;;;24.13;14.27;;;25.70;4.50;;;;;;10137216;29;20213;-85
2022/03/22 10:53:48;;;;;;;28.92;14.88;;;26.10;4.50;;;;;;10128480;29;20223;-83
2022/03/22 10:59:13;;;;;;;19.90;12.35;;;25.90;4.30;;;;;;10160699;29;20534;-83
2022/03/22 11:04:40;;;;;;;22.13;13.55;;;25.00;4.30;;;;;;10139203;29;20209;-82
2022/03/22 11:10:02;;;;;;;18.38;11.93;;;25.30;3.80;;;;;;10113405;29;20213;-83
2022/03/22 11:15:47;;;;;;;17.05;12.48;;;25.30;3.90;;;;;;10169924;29;20545;-83
2022/03/22 11:21:17;;;;;;;17.95;12.00;;;24.90;3.60;;;;;;10167656;29;20235;-81
2022/03/22 11:26:43;;;;;;;20.02;12.45;;;24.90;3.80;;;;;;10163986;29;20232;-82
2022/03/22 11:38:00;;;;;;;20.20;12.23;;;24.90;3.30;;;;;;10156766;29;20558;-82
2022/03/22 11:43:22;;;;;;;16.90;12.38;;;24.70;3.70;;;;;;10162368;29;20287;-81
2022/03/22 11:48:51;;;;;;;18.83;11.55;;;24.80;3.40;;;;;;10163885;29;20293;-84
2022/03/22 11:54:14;;;;;;;17.05;12.13;;;25.40;3.70;;;;;;10119328;29;20260;-79
2022/03/22 11:59:45;;;;;;;24.55;12.32;;;25.60;2.90;;;;;;10167630;29;20404;-84
2022/03/22 12:05:07;;;;;;;16.05;11.48;;;25.10;3.20;;;;;;10162897;29;20216;-85
2022/03/22 12:10:30;;;;;;;26.17;13.10;;;25.20;3.20;;;;;;10178687;29;20234;-86
2022/03/22 12:16:00;;;;;;;16.30;10.82;;;25.00;3.10;;;;;;10159730;29;20303;-84
2022/03/22 12:21:23;;;;;;;20.10;11.82;;;24.80;3.40;;;;;;10162549;29;20287;-81
2022/03/22 12:26:46;;;;;;;17.38;12.40;;;24.60;3.10;;;;;;10134906;29;20212;-82
2022/03/22 12:32:19;;;;;;;20.08;13.52;;;25.00;3.50;;;;;;10136226;29;20691;-84
2022/03/22 12:37:41;;;;;;;17.38;11.52;;;25.30;3.40;;;;;;10145265;29;20307;-84
2022/03/22 12:43:06;;;;;;;14.98;11.15;;;25.40;3.20;;;;;;10178016;29;20307;-82
2022/03/22 12:48:30;;;;;;;13.93;11.00;;;25.10;3.10;;;;;;10161226;29;20240;-83
2022/03/22 12:53:53;;;;;;;16.38;11.32;;;24.90;3.10;;;;;;10159289;29;20209;-93
2022/03/22 12:59:20;;;;;;;16.20;10.82;;;23.40;3.10;;;;;;10138695;29;20635;-85
2022/03/22 13:04:47;;;;;;;13.63;10.10;;;23.10;3.90;;;;;;10168535;29;20213;-83
2022/03/22 13:16:08;;;;;;;15.68;10.15;;;22.10;4.50;;;;;;10003049;29;20450;-85
2022/03/22 13:21:35;;;;;;;13.82;9.55;;;21.90;3.90;;;;;;10029587;29;20223;-81
2022/03/22 13:27:02;;;;;;;15.18;10.90;;;22.00;3.70;;;;;;10018445;29;20426;-84
2022/03/22 14:02:55;;;;;;;18.73;10.93;;;21.60;3.60;;;;;;10023338;29;20251;-88
2022/03/22 14:08:21;;;;;;;14.45;10.63;;;21.30;4.10;;;;;;10015540;29;20220;-89
2022/03/22 14:13:44;;;;;;;17.17;10.45;;;20.70;4.30;;;;;;10039951;29;20234;-87
2022/03/22 14:19:35;;;;;;;18.45;11.00;;;20.40;4.50;;;;;;10036988;29;20244;-87
2022/03/22 14:26:01;;;;;;;17.15;11.93;;;19.90;5.10;;;;;;10176049;29;20216;-88
2022/03/22 14:32:07;;;;;;;16.02;10.25;;;18.90;5.70;;;;;;10047632;29;20215;-88
2022/03/22 14:38:42;;;;;;;19.48;11.88;;;18.50;6.00;;;;;;10113720;29;20240;-92
2022/03/22 19:51:54;;;;;;;257.27;114.00;;;8.60;30.00;;;;;;9827965;30;20207;-86
2022/03/22 20:14:05;;;;;;;222.67;99.17;;;8.20;42.90;;;;;;9905164;30;20233;-86
2022/03/22 20:50:50;;;;;;;269.03;124.73;;;7.00;81.80;;;;;;10143328;29;20273;-85
2022/03/22 21:10:59;;;;;;;237.30;103.77;;;7.20;85.10;;;;;;10174511;29;20465;-86
2022/03/22 21:17:04;;;;;;;213.40;95.63;;;7.20;85.30;;;;;;10205974;29;20550;-86
2022/03/22 21:22:56;;;;;;;207.13;96.93;;;7.10;87.10;;;;;;10192586;29;20521;-85
2022/03/22 21:28:43;;;;;;;226.67;102.13;;;7.00;89.20;;;;;;10150684;29;20214;-86
2022/03/22 21:34:07;;;;;;;225.53;103.87;;;6.90;90.90;;;;;;10134964;29;20234;-86
2022/03/22 21:39:29;;;;;;;226.80;102.63;;;6.80;90.70;;;;;;10142936;29;20231;-86
2022/03/22 21:44:54;;;;;;;243.70;108.53;;;;;;;;;;10204535;29;20214;-86
2022/03/22 21:50:19;;;;;;;241.33;108.07;;;;;;;;;;10211237;29;20212;-85
2022/03/22 21:55:44;;;;;;;238.83;104.83;;;;;;;;;;10189159;29;20266;-85
2022/03/22 22:01:08;;;;;;;213.73;97.77;;;6.40;92.90;;;;;;10189008;29;20292;-85
2022/03/22 22:06:31;;;;;;;213.57;91.63;;;;;;;;;;10211689;29;20216;-84
2022/03/22 22:11:53;;;;;;;191.40;83.70;;;6.20;94.90;;;;;;10200403;29;20560;-84
2022/03/22 22:17:15;;;;;;;203.33;90.57;;;;;;;;;;10201961;29;20239;-84
2022/03/22 22:22:37;;;;;;;252.07;109.57;;;5.80;97.20;;;;;;10219279;29;20205;-84
2022/03/22 22:28:03;;;;;;;263.80;119.33;;;5.80;97.00;;;;;;10194227;29;20420;-83
2022/03/22 22:39:05;;;;;;;252.57;112.07;;;5.80;96.10;;;;;;10206455;29;20235;-83
2022/03/22 22:44:27;;;;;;;205.27;92.50;;;5.70;96.80;;;;;;10178176;29;20218;-83
2022/03/22 22:49:49;;;;;;;193.03;89.30;;;5.60;98.10;;;;;;10171271;29;20249;-82
2022/03/22 22:55:11;;;;;;;172.70;77.20;;;5.60;98.10;;;;;;10170767;29;20210;-82
2022/03/22 23:01:04;;;;;;;157.07;69.67;;;5.50;98.90;;;;;;10182460;29;20228;-83
2022/03/22 23:10:09;;;;;;;150.47;68.27;;;5.30;99.80;;;;;;10170312;29;20271;-82
2022/03/22 23:12:09;;;;;;;153.13;67.37;;;5.20;99.70;;;;;;10194265;29;20235;-82
2022/03/22 23:17:31;;;;;;;152.60;70.43;;;5.20;99.80;;;;;;10209089;29;20262;-81
2022/03/22 23:22:53;;;;;;;143.70;65.43;;;5.10;99.90;;;;;;10176956;29;20207;-81
2022/03/22 23:28:15;;;;;;;154.33;70.53;;;4.90;99.90;;;;;;10168673;29;20218;-81
2022/03/22 23:33:37;;;;;;;152.57;70.80;;;4.90;99.90;;;;;;10193161;29;20258;-81
2022/03/22 23:39:00;;;;;;;158.33;70.67;;;5.00;99.90;;;;;;10223796;29;20237;-81
2022/03/22 23:44:25;;;;;;;152.93;73.23;;;4.90;99.90;;;;;;10130109;29;20217;-81
2022/03/22 23:49:47;;;;;;;158.87;72.17;;;4.90;99.90;;;;;;10157430;29;20210;-81
2022/03/22 23:55:09;;;;;;;147.73;68.77;;;4.80;99.90;;;;;;10194440;29;20215;-81
